createdAt,value
2017-09-08T00:01:02.916Z,97.04
2017-09-08T00:01:48.322Z,97.04
2017-09-08T00:02:48.352Z,97.23
2017-09-08T00:03:48.362Z,97.23
2017-09-08T00:04:48.385Z,97.47
2017-09-08T00:05:48.408Z,97.61
2017-09-08T00:07:48.463Z,97.47
2017-09-08T00:08:48.477Z,97.85
2017-09-08T00:09:48.506Z,97.66
2017-09-08T00:10:48.530Z,98.33
2017-09-08T00:11:48.551Z,98.33
2017-09-08T00:12:48.577Z,98.52
2017-09-08T00:13:48.581Z,98.33
2017-09-08T00:14:48.609Z,99.19
2017-09-08T00:15:48.634Z,98.99
2017-09-08T00:17:03.276Z,99.38
2017-09-08T00:17:48.376Z,99.28
2017-09-08T00:18:48.702Z,99.76
2017-09-08T00:21:48.774Z,99.85
2017-09-08T00:22:48.800Z,99.99
2017-09-08T00:23:48.817Z,99.99
2017-09-08T00:24:48.835Z,99.99
2017-09-08T00:25:48.866Z,99.99
2017-09-08T00:26:48.877Z,99.99
2017-09-08T00:27:48.914Z,99.99
2017-09-08T00:29:49.005Z,99.99
2017-09-08T00:30:49.024Z,99.99
2017-09-08T00:31:48.984Z,99.99
2017-09-08T00:33:03.632Z,99.99
2017-09-08T00:33:49.038Z,99.99
2017-09-08T00:34:49.070Z,99.99
2017-09-08T00:35:49.074Z,99.99
2017-09-08T00:36:48.802Z,99.99
2017-09-08T00:37:49.119Z,99.99
2017-09-08T00:38:49.157Z,99.99
2017-09-08T00:39:49.168Z,99.99
2017-09-08T00:40:49.200Z,99.99
2017-09-08T00:41:49.207Z,99.99
2017-09-08T00:42:49.261Z,99.99
2017-09-08T00:44:49.288Z,99.99
2017-09-08T00:45:49.315Z,99.99
2017-09-08T00:46:49.334Z,99.99
2017-09-08T00:48:03.965Z,99.99
2017-09-08T00:48:49.376Z,99.99
2017-09-08T00:49:49.399Z,99.99
2017-09-08T00:50:49.413Z,99.99
2017-09-08T00:51:49.451Z,99.99
2017-09-08T00:52:49.471Z,99.99
2017-09-08T00:53:49.488Z,99.99
2017-09-08T00:54:49.508Z,99.99
2017-09-08T00:55:49.532Z,99.99
2017-09-08T00:56:49.558Z,99.99
2017-09-08T00:57:49.568Z,99.99
2017-09-08T00:58:49.599Z,99.99
2017-09-08T00:59:49.612Z,99.99
2017-09-08T01:00:49.652Z,99.99
2017-09-08T01:01:49.654Z,99.99
2017-09-08T01:02:49.677Z,99.99
2017-09-08T01:04:49.729Z,99.99
2017-09-08T01:05:49.758Z,99.99
2017-09-08T01:07:49.816Z,99.99
2017-09-08T01:08:49.832Z,99.99
2017-09-08T01:10:49.856Z,99.99
2017-09-08T01:11:49.896Z,99.99
2017-09-08T01:12:49.903Z,99.99
2017-09-08T01:13:49.934Z,99.99
2017-09-08T01:14:49.950Z,99.99
2017-09-08T01:15:49.980Z,99.99
2017-09-08T01:16:50.008Z,99.99
2017-09-08T01:17:49.701Z,99.99
2017-09-08T01:18:50.051Z,99.99
2017-09-08T01:20:04.675Z,99.99
2017-09-08T01:20:50.074Z,99.99
2017-09-08T01:21:50.111Z,99.99
2017-09-08T01:22:49.826Z,99.99
2017-09-08T01:23:49.846Z,99.99
2017-09-08T01:24:50.165Z,99.99
2017-09-08T01:25:50.202Z,99.99
2017-09-08T01:26:49.901Z,99.99
2017-09-08T01:27:49.934Z,99.99
2017-09-08T01:29:50.289Z,99.99
2017-09-08T01:30:50.311Z,99.99
2017-09-08T01:31:50.330Z,99.99
2017-09-08T01:32:50.052Z,99.99
2017-09-08T01:33:50.063Z,99.99
2017-09-08T01:34:50.396Z,99.99
2017-09-08T01:36:05.032Z,99.99
2017-09-08T01:36:50.434Z,99.99
2017-09-08T01:37:50.147Z,99.99
2017-09-08T01:38:50.523Z,99.99
2017-09-08T01:39:50.510Z,99.99
2017-09-08T01:41:50.541Z,99.99
2017-09-08T01:42:50.578Z,99.99
2017-09-08T01:43:50.583Z,99.99
2017-09-08T01:44:50.615Z,99.99
2017-09-08T01:45:50.630Z,99.99
2017-09-08T01:46:50.666Z,99.99
2017-09-08T01:47:50.689Z,99.99
2017-09-08T01:48:50.705Z,99.99
2017-09-08T01:49:50.720Z,99.99
2017-09-08T01:50:50.750Z,99.99
2017-09-08T01:52:05.381Z,99.99
2017-09-08T01:52:50.816Z,99.99
2017-09-08T01:53:50.816Z,99.99
2017-09-08T01:54:50.825Z,99.99
2017-09-08T01:55:50.862Z,99.99
2017-09-08T01:56:50.875Z,99.99
2017-09-08T01:57:50.893Z,99.99
2017-09-08T01:58:50.915Z,99.99
2017-09-08T01:59:50.947Z,99.99
2017-09-08T02:00:50.649Z,99.99
2017-09-08T02:01:50.679Z,99.99
2017-09-08T02:02:51.002Z,99.99
2017-09-08T02:03:51.040Z,99.99
2017-09-08T02:04:51.047Z,99.99
2017-09-08T02:05:51.088Z,99.99
2017-09-08T02:06:51.094Z,99.99
2017-09-08T02:08:05.735Z,99.99
2017-09-08T02:08:51.144Z,99.99
2017-09-08T02:09:50.855Z,99.99
2017-09-08T02:10:51.189Z,99.99
2017-09-08T02:11:51.203Z,99.99
2017-09-08T02:12:50.918Z,99.99
2017-09-08T02:13:51.251Z,99.99
2017-09-08T02:14:51.272Z,99.99
2017-09-08T02:15:51.298Z,99.99
2017-09-08T02:16:51.311Z,99.99
2017-09-08T02:17:51.336Z,99.99
2017-09-08T02:18:51.075Z,99.99
2017-09-08T02:19:51.391Z,99.99
2017-09-08T02:20:51.440Z,99.99
2017-09-08T02:21:51.418Z,99.99
2017-09-08T02:23:06.062Z,99.99
2017-09-08T02:23:51.156Z,99.99
2017-09-08T02:24:51.178Z,99.99
2017-09-08T02:25:51.202Z,99.99
2017-09-08T02:27:51.556Z,99.99
2017-09-08T02:28:51.577Z,99.99
2017-09-08T02:29:51.284Z,99.99
2017-09-08T02:30:51.624Z,99.99
2017-09-08T02:31:51.643Z,99.99
2017-09-08T02:32:51.661Z,99.99
2017-09-08T02:33:51.367Z,99.99
2017-09-08T02:34:51.389Z,99.99
2017-09-08T02:35:51.727Z,99.99
2017-09-08T02:36:51.750Z,99.99
2017-09-08T02:37:51.463Z,99.99
2017-09-08T02:39:51.508Z,99.99
2017-09-08T02:40:51.825Z,99.99
2017-09-08T02:41:51.860Z,99.99
2017-09-08T02:42:51.570Z,99.99
2017-09-08T02:43:51.904Z,99.99
2017-09-08T02:44:51.929Z,99.99
2017-09-08T02:45:51.632Z,99.99
2017-09-08T02:46:51.974Z,99.99
2017-09-08T02:47:51.669Z,99.99
2017-09-08T02:48:51.999Z,99.99
2017-09-08T02:49:51.720Z,99.99
2017-09-08T02:50:52.055Z,99.99
2017-09-08T02:51:52.084Z,99.99
2017-09-08T02:52:52.095Z,99.99
2017-09-08T02:53:52.133Z,99.99
2017-09-08T02:55:06.755Z,99.99
2017-09-08T02:55:52.164Z,99.99
2017-09-08T02:56:52.190Z,99.99
2017-09-08T02:57:52.196Z,99.99
2017-09-08T02:58:52.226Z,99.99
2017-09-08T02:59:52.253Z,99.99
2017-09-08T03:00:52.265Z,99.99
2017-09-08T03:01:51.984Z,99.99
2017-09-08T03:02:52.318Z,99.99
2017-09-08T03:03:52.339Z,99.99
2017-09-08T03:04:52.351Z,99.99
2017-09-08T03:05:52.372Z,99.99
2017-09-08T03:06:52.395Z,99.99
2017-09-08T03:07:52.432Z,99.99
2017-09-08T03:08:52.453Z,99.99
2017-09-08T03:09:52.519Z,99.99
2017-09-08T03:11:07.099Z,99.99
2017-09-08T03:11:52.500Z,99.99
2017-09-08T03:12:52.224Z,99.99
2017-09-08T03:13:52.554Z,99.99
2017-09-08T03:14:52.578Z,99.99
2017-09-08T03:15:52.291Z,99.99
2017-09-08T03:16:52.309Z,99.99
2017-09-08T03:17:52.636Z,99.99
2017-09-08T03:18:52.655Z,99.99
2017-09-08T03:19:52.688Z,99.99
2017-09-08T03:20:52.697Z,99.99
2017-09-08T03:21:52.735Z,99.99
2017-09-08T03:22:52.739Z,99.99
2017-09-08T03:23:52.778Z,99.99
2017-09-08T03:24:52.788Z,99.99
2017-09-08T03:25:52.819Z,99.99
2017-09-08T03:27:07.451Z,99.99
2017-09-08T03:27:52.862Z,99.99
2017-09-08T03:28:52.875Z,99.99
2017-09-08T03:29:52.895Z,99.99
2017-09-08T03:30:52.940Z,99.99
2017-09-08T03:31:52.949Z,99.99
2017-09-08T03:32:52.972Z,99.99
2017-09-08T03:33:52.993Z,99.99
2017-09-08T03:34:53.018Z,99.99
2017-09-08T03:35:53.029Z,99.99
2017-09-08T03:36:53.062Z,99.99
2017-09-08T03:37:53.065Z,99.99
2017-09-08T03:38:53.104Z,99.99
2017-09-08T03:39:53.124Z,99.99
2017-09-08T03:40:53.133Z,99.99
2017-09-08T03:41:52.854Z,99.99
2017-09-08T03:43:07.797Z,99.99
2017-09-08T03:43:53.213Z,99.99
2017-09-08T03:44:53.221Z,99.99
2017-09-08T03:47:53.291Z,99.99
2017-09-08T03:48:53.009Z,99.99
2017-09-08T03:49:53.341Z,99.99
2017-09-08T03:50:53.358Z,99.99
2017-09-08T03:51:53.391Z,99.99
2017-09-08T03:52:53.404Z,99.99
2017-09-08T03:54:53.453Z,99.99
2017-09-08T03:55:53.479Z,99.99
2017-09-08T03:56:53.495Z,99.99
2017-09-08T03:58:08.179Z,99.99
2017-09-08T03:58:53.546Z,99.99
2017-09-08T03:59:53.556Z,99.99
2017-09-08T04:00:53.584Z,99.99
2017-09-08T04:01:53.597Z,99.99
2017-09-08T04:02:53.627Z,99.99
2017-09-08T04:03:53.705Z,99.99
2017-09-08T04:04:53.667Z,99.99
2017-09-08T04:05:53.694Z,99.99
2017-09-08T04:06:53.727Z,99.99
2017-09-08T04:07:53.726Z,99.99
2017-09-08T04:08:53.756Z,99.99
2017-09-08T04:09:53.769Z,99.99
2017-09-08T04:10:53.806Z,99.99
2017-09-08T04:11:53.823Z,99.99
2017-09-08T04:12:53.847Z,99.99
2017-09-08T04:13:53.863Z,99.99
2017-09-08T04:14:53.894Z,99.99
2017-09-08T04:15:53.911Z,99.99
2017-09-08T04:16:53.924Z,99.99
2017-09-08T04:17:53.961Z,99.99
2017-09-08T04:18:53.962Z,99.99
2017-09-08T04:19:53.998Z,99.99
2017-09-08T04:20:54.008Z,99.99
2017-09-08T04:21:54.049Z,99.99
2017-09-08T04:23:54.081Z,99.99
2017-09-08T04:24:54.110Z,99.99
2017-09-08T04:25:54.118Z,99.99
2017-09-08T04:26:54.158Z,99.99
2017-09-08T04:27:54.172Z,99.99
2017-09-08T04:28:54.201Z,99.99
2017-09-08T04:30:08.826Z,99.99
2017-09-08T04:30:54.242Z,99.99
2017-09-08T04:31:54.256Z,99.99
2017-09-08T04:32:53.971Z,99.99
2017-09-08T04:34:54.328Z,99.99
2017-09-08T04:36:54.058Z,99.99
2017-09-08T04:37:54.397Z,99.99
2017-09-08T04:39:54.428Z,99.99
2017-09-08T04:40:54.461Z,99.99
2017-09-08T04:41:54.472Z,99.99
2017-09-08T04:42:54.186Z,99.99
2017-09-08T04:43:54.528Z,99.99
2017-09-08T04:44:54.544Z,99.99
2017-09-08T04:46:09.181Z,99.99
2017-09-08T04:46:54.595Z,99.99
2017-09-08T04:48:54.636Z,99.99
2017-09-08T04:49:54.653Z,99.99
2017-09-08T04:50:54.663Z,99.99
2017-09-08T04:51:54.393Z,99.99
2017-09-08T04:52:54.728Z,99.99
2017-09-08T04:53:54.747Z,99.99
2017-09-08T04:54:54.754Z,99.99
2017-09-08T04:55:54.792Z,99.99
2017-09-08T04:56:54.797Z,99.99
2017-09-08T04:57:54.833Z,99.99
2017-09-08T04:58:54.856Z,99.99
2017-09-08T04:59:54.865Z,99.99
2017-09-08T05:00:54.590Z,99.99
2017-09-08T05:02:09.530Z,99.99
2017-09-08T05:02:54.942Z,99.99
2017-09-08T05:03:54.951Z,99.99
2017-09-08T05:04:54.978Z,99.99
2017-09-08T05:05:54.996Z,99.99
2017-09-08T05:06:55.033Z,99.99
2017-09-08T05:07:55.055Z,99.99
2017-09-08T05:08:55.061Z,99.99
2017-09-08T05:10:55.111Z,99.99
2017-09-08T05:11:55.451Z,99.99
2017-09-08T05:12:55.163Z,99.99
2017-09-08T05:13:55.172Z,99.99
2017-09-08T05:14:55.199Z,99.99
2017-09-08T05:15:55.227Z,99.99
2017-09-08T05:16:55.242Z,99.99
2017-09-08T05:18:09.885Z,99.99
2017-09-08T05:18:55.289Z,99.99
2017-09-08T05:19:55.324Z,99.99
2017-09-08T05:20:55.328Z,99.99
2017-09-08T05:21:55.349Z,99.99
2017-09-08T05:22:55.382Z,99.99
2017-09-08T05:23:55.402Z,99.99
2017-09-08T05:25:55.455Z,99.95
2017-09-08T05:26:55.480Z,99.76
2017-09-08T05:27:55.490Z,99.66
2017-09-08T05:28:55.505Z,99.99
2017-09-08T05:29:55.543Z,99.85
2017-09-08T05:30:55.550Z,99.99
2017-09-08T05:31:55.592Z,99.85
2017-09-08T05:33:10.217Z,99.95
2017-09-08T05:33:55.369Z,99.66
2017-09-08T05:36:55.693Z,99.66
2017-09-08T05:37:55.702Z,99.66
2017-09-08T05:38:55.740Z,99.66
2017-09-08T05:39:55.761Z,99.95
2017-09-08T05:40:55.765Z,99.57
2017-09-08T05:41:55.807Z,99.76
2017-09-08T05:42:55.825Z,99.99
2017-09-08T05:43:55.851Z,99.66
2017-09-08T05:44:55.859Z,99.99
2017-09-08T05:45:55.879Z,99.99
2017-09-08T05:46:55.915Z,99.48
2017-09-08T05:47:55.938Z,99.85
2017-09-08T05:48:55.960Z,99.99
2017-09-08T05:49:55.968Z,99.99
2017-09-08T05:50:56.007Z,99.62
2017-09-08T05:51:56.015Z,99.71
2017-09-08T05:53:56.061Z,99.04
2017-09-08T05:54:56.093Z,99.33
2017-09-08T05:55:56.120Z,99.04
2017-09-08T05:56:56.118Z,99.24
2017-09-08T05:57:56.154Z,98.85
2017-09-08T05:58:56.167Z,99.52
2017-09-08T06:00:56.220Z,99.14
2017-09-08T06:01:56.246Z,99.81
2017-09-08T06:02:56.272Z,99.71
2017-09-08T06:03:56.291Z,99.81
2017-09-08T06:05:10.923Z,99.71
2017-09-08T06:05:56.338Z,99.62
2017-09-08T06:06:56.347Z,99.71
2017-09-08T06:07:56.381Z,99.9
2017-09-08T06:08:56.400Z,99.71
2017-09-08T06:09:56.427Z,99.9
2017-09-08T06:10:56.434Z,99.99
2017-09-08T06:12:56.175Z,99.24
2017-09-08T06:13:56.514Z,99.62
2017-09-08T06:14:56.525Z,99.43
2017-09-08T06:15:56.554Z,99.43
2017-09-08T06:16:56.578Z,99.14
2017-09-08T06:17:56.593Z,99.14
2017-09-08T06:18:56.631Z,98.95
2017-09-08T06:19:56.326Z,99.33
2017-09-08T06:21:11.280Z,99.24
2017-09-08T06:23:56.734Z,98.95
2017-09-08T06:24:56.749Z,99.14
2017-09-08T06:25:56.785Z,97.99
2017-09-08T06:26:56.812Z,98.85
2017-09-08T06:27:57.027Z,99.33
2017-09-08T06:28:56.835Z,99.24
2017-09-08T06:29:56.860Z,98.85
2017-09-08T06:30:56.890Z,99.04
2017-09-08T06:31:56.918Z,98.75
2017-09-08T06:32:56.934Z,98.38
2017-09-08T06:33:56.957Z,98.66
2017-09-08T06:34:56.975Z,98.66
2017-09-08T06:35:57.016Z,98.95
2017-09-08T06:37:11.638Z,98.33
2017-09-08T06:37:57.043Z,97.56
2017-09-08T06:38:57.059Z,97.08
2017-09-08T06:39:57.090Z,97.08
2017-09-08T06:40:57.104Z,97.18
2017-09-08T06:41:57.125Z,96.37
2017-09-08T06:42:57.161Z,96.61
2017-09-08T06:43:57.182Z,96.84
2017-09-08T06:44:56.884Z,96.08
2017-09-08T06:45:57.222Z,95.89
2017-09-08T06:46:57.242Z,95.22
2017-09-08T06:47:57.267Z,95.98
2017-09-08T06:48:57.281Z,95.61
2017-09-08T06:49:57.001Z,95.22
2017-09-08T06:50:57.350Z,94.74
2017-09-08T06:51:57.349Z,95.22
2017-09-08T06:53:11.996Z,95.03
2017-09-08T06:53:57.402Z,95.31
2017-09-08T06:54:57.427Z,95.41
2017-09-08T06:55:57.440Z,94.74
2017-09-08T06:56:57.477Z,94.45
2017-09-08T06:57:57.493Z,94.74
2017-09-08T06:58:57.521Z,95.22
2017-09-08T06:59:57.542Z,95.12
2017-09-08T07:00:57.566Z,94.45
2017-09-08T07:01:57.736Z,94.65
2017-09-08T07:02:57.602Z,94.93
2017-09-08T07:03:57.416Z,95.22
2017-09-08T07:04:57.799Z,94.07
2017-09-08T07:05:57.672Z,93.98
2017-09-08T07:06:57.701Z,94.07
2017-09-08T07:08:12.334Z,93.16
2017-09-08T07:08:57.838Z,93.69
2017-09-08T07:09:57.768Z,92.87
2017-09-08T07:10:57.782Z,92.97
2017-09-08T07:11:57.819Z,92.49
2017-09-08T07:12:57.833Z,92.68
2017-09-08T07:14:57.879Z,92.4
2017-09-08T07:15:57.907Z,92.49
2017-09-08T07:16:57.918Z,92.11
2017-09-08T07:18:57.662Z,91.82
2017-09-08T07:19:57.987Z,91.63
2017-09-08T07:20:57.701Z,91.67
2017-09-08T07:21:58.035Z,91.19
2017-09-08T07:22:58.062Z,91.67
2017-09-08T07:23:58.094Z,90.72
2017-09-08T07:24:57.796Z,90.14
2017-09-08T07:25:58.331Z,90.43
2017-09-08T07:26:58.152Z,90.33
2017-09-08T07:27:57.862Z,89.86
2017-09-08T07:28:58.200Z,90.05
2017-09-08T07:29:57.966Z,89.76
2017-09-08T07:30:58.250Z,90.14
2017-09-08T07:31:58.269Z,89.86
2017-09-08T07:32:58.443Z,89.28
2017-09-08T07:33:58.005Z,89.42
2017-09-08T07:34:58.343Z,88.84
2017-09-08T07:35:58.355Z,89.23
2017-09-08T07:36:58.387Z,88.65
2017-09-08T07:37:58.413Z,88.94
2017-09-08T07:38:58.431Z,89.42
2017-09-08T07:40:13.069Z,89.23
2017-09-08T07:41:58.594Z,88.65
2017-09-08T07:42:58.530Z,88.37
2017-09-08T07:43:58.546Z,87.07
2017-09-08T07:44:58.667Z,87.26
2017-09-08T07:45:58.284Z,86.88
2017-09-08T07:46:58.621Z,86.68
2017-09-08T07:47:58.328Z,86.58
2017-09-08T07:48:58.348Z,86.01
2017-09-08T07:49:58.473Z,86.4
2017-09-08T07:50:58.399Z,86.25
2017-09-08T07:51:58.731Z,85.58
2017-09-08T07:52:58.751Z,86.05
2017-09-08T07:54:58.493Z,84.61
2017-09-08T07:56:13.443Z,85
2017-09-08T07:56:58.845Z,85.77
2017-09-08T07:57:58.978Z,84.33
2017-09-08T07:58:59.002Z,84.66
2017-09-08T07:59:58.924Z,83.8
2017-09-08T08:00:58.938Z,83.8
2017-09-08T08:01:58.972Z,84.37
2017-09-08T08:02:58.989Z,83.98
2017-09-08T08:03:59.021Z,84.27
2017-09-08T08:04:58.725Z,83.22
2017-09-08T08:05:59.210Z,83.41
2017-09-08T08:06:59.182Z,82.74
2017-09-08T08:07:59.105Z,82.74
2017-09-08T08:08:59.194Z,82.35
2017-09-08T08:10:59.182Z,82.45
2017-09-08T08:12:13.826Z,81.34
2017-09-08T08:13:59.260Z,81.78
2017-09-08T08:14:59.274Z,82.01
2017-09-08T08:15:58.991Z,80.86
2017-09-08T08:16:59.320Z,81.53
2017-09-08T08:17:59.446Z,81.67
2017-09-08T08:18:59.474Z,81.19
2017-09-08T08:19:59.411Z,80.61
2017-09-08T08:20:59.577Z,80.51
2017-09-08T08:21:59.457Z,80.51
2017-09-08T08:22:59.159Z,80.32
2017-09-08T08:23:59.493Z,80.8
2017-09-08T08:24:59.667Z,79.84
2017-09-08T08:25:59.553Z,79.94
2017-09-08T08:26:59.572Z,79.55
2017-09-08T08:28:14.211Z,79.65
2017-09-08T08:28:59.613Z,79.27
2017-09-08T08:29:59.649Z,80.13
2017-09-08T08:30:59.665Z,79.84
2017-09-08T08:31:59.898Z,78.98
2017-09-08T08:32:59.507Z,79.79
2017-09-08T08:33:59.432Z,79.17
2017-09-08T08:34:59.770Z,79.46
2017-09-08T08:35:59.790Z,79.75
2017-09-08T08:36:59.821Z,78.88
2017-09-08T08:37:59.829Z,80.04
2017-09-08T08:38:59.866Z,80.51
2017-09-08T08:39:59.887Z,80.13
2017-09-08T08:40:59.916Z,80.8
2017-09-08T08:41:59.931Z,81.72
2017-09-08T08:43:14.576Z,81.43
2017-09-08T08:43:59.992Z,82.2
2017-09-08T08:45:00.109Z,82.49
2017-09-08T08:46:00.028Z,81.92
2017-09-08T08:47:00.055Z,83.26
2017-09-08T08:48:00.078Z,84.12
2017-09-08T08:49:00.102Z,83.93
2017-09-08T08:50:00.133Z,83.74
2017-09-08T08:51:00.158Z,84.89
2017-09-08T08:52:00.270Z,83.74
2017-09-08T08:53:00.303Z,83.64
2017-09-08T08:53:59.923Z,84.12
2017-09-08T08:54:59.944Z,83.16
2017-09-08T08:55:59.966Z,82.59
2017-09-08T08:57:00.297Z,83.01
2017-09-08T08:58:00.317Z,82.63
2017-09-08T08:59:00.350Z,82.24
2017-09-08T09:00:00.374Z,81.96
2017-09-08T09:01:00.398Z,81.67
2017-09-08T09:02:00.418Z,82.2
2017-09-08T09:03:00.464Z,82.87
2017-09-08T09:04:00.623Z,82.59
2017-09-08T09:06:00.525Z,83.16
2017-09-08T09:07:00.537Z,82.87
2017-09-08T09:08:00.711Z,82.68
2017-09-08T09:09:00.593Z,83.26
2017-09-08T09:11:00.323Z,83.26
2017-09-08T09:12:00.667Z,82.87
2017-09-08T09:13:00.378Z,83.41
2017-09-08T09:14:00.705Z,82.97
2017-09-08T09:15:15.354Z,83.45
2017-09-08T09:17:00.779Z,83.26
2017-09-08T09:18:01.003Z,83.07
2017-09-08T09:19:00.817Z,83.64
2017-09-08T09:20:00.949Z,82.68
2017-09-08T09:21:00.971Z,83.16
2017-09-08T09:22:00.931Z,83.07
2017-09-08T09:23:00.929Z,82.49
2017-09-08T09:24:00.955Z,82.59
2017-09-08T09:25:01.094Z,83.07
2017-09-08T09:26:00.692Z,82.68
2017-09-08T09:27:01.137Z,82.4
2017-09-08T09:29:00.767Z,81.53
2017-09-08T09:30:01.091Z,82.01
2017-09-08T09:31:15.740Z,82.1
2017-09-08T09:32:01.174Z,82.4
2017-09-08T09:33:01.182Z,82.4
2017-09-08T09:34:00.888Z,83.54
2017-09-08T09:35:01.222Z,83.16
2017-09-08T09:36:01.236Z,82.87
2017-09-08T09:37:01.271Z,82.4
2017-09-08T09:39:01.321Z,82.4
2017-09-08T09:40:01.186Z,83.16
2017-09-08T09:41:01.053Z,82.2
2017-09-08T09:42:01.400Z,82.2
2017-09-08T09:43:01.413Z,82.4
2017-09-08T09:44:01.445Z,82.2
2017-09-08T09:45:01.455Z,82.24
2017-09-08T09:46:01.485Z,81.57
2017-09-08T09:47:16.121Z,81.57
2017-09-08T09:48:01.544Z,81.28
2017-09-08T09:49:01.249Z,81.19
2017-09-08T09:50:01.283Z,80.61
2017-09-08T09:51:01.757Z,80.13
2017-09-08T09:52:01.427Z,79.84
2017-09-08T09:53:01.748Z,79.4
2017-09-08T09:54:01.673Z,79.88
2017-09-08T09:55:01.810Z,79.88
2017-09-08T09:56:01.820Z,79.88
2017-09-08T09:57:01.762Z,79.11
2017-09-08T09:59:01.797Z,78.83
2017-09-08T10:00:01.827Z,78.92
2017-09-08T10:01:01.849Z,79.21
2017-09-08T10:02:01.881Z,79.02
2017-09-08T10:03:16.513Z,79.88
2017-09-08T10:04:01.614Z,79.02
2017-09-08T10:05:01.949Z,79.88
2017-09-08T10:06:01.974Z,78.34
2017-09-08T10:07:02.106Z,78.83
2017-09-08T10:08:02.015Z,79.11
2017-09-08T10:09:02.053Z,78.83
2017-09-08T10:10:02.075Z,79.3
2017-09-08T10:11:02.192Z,78.73
2017-09-08T10:12:02.123Z,79.3
2017-09-08T10:13:02.133Z,79.3
2017-09-08T10:14:02.175Z,78.83
2017-09-08T10:15:02.188Z,79.79
2017-09-08T10:16:02.217Z,79.6
2017-09-08T10:17:02.240Z,79.98
2017-09-08T10:18:16.879Z,79.88
2017-09-08T10:19:02.293Z,79.6
2017-09-08T10:20:02.317Z,79.84
2017-09-08T10:21:02.448Z,79.79
2017-09-08T10:22:02.370Z,79.65
2017-09-08T10:23:02.391Z,79.55
2017-09-08T10:24:02.417Z,79.94
2017-09-08T10:25:02.436Z,79.88
2017-09-08T10:26:02.475Z,79.5
2017-09-08T10:28:02.518Z,79.3
2017-09-08T10:29:02.636Z,78.86
2017-09-08T10:30:02.560Z,78.48
2017-09-08T10:31:02.578Z,77.51
2017-09-08T10:32:02.598Z,78.28
2017-09-08T10:33:02.625Z,77.61
2017-09-08T10:34:02.649Z,76.98
2017-09-08T10:35:02.686Z,76.78
2017-09-08T10:36:02.696Z,77.04
2017-09-08T10:37:02.731Z,76.65
2017-09-08T10:38:02.752Z,77.23
2017-09-08T10:39:02.461Z,78.38
2017-09-08T10:40:02.804Z,78.28
2017-09-08T10:41:02.820Z,77.51
2017-09-08T10:42:03.100Z,77.51
2017-09-08T10:43:02.985Z,77.51
2017-09-08T10:45:02.919Z,77.71
2017-09-08T10:46:02.638Z,78.38
2017-09-08T10:47:02.968Z,77.51
2017-09-08T10:48:02.988Z,76.84
2017-09-08T10:49:03.018Z,77.9
2017-09-08T10:50:17.663Z,78
2017-09-08T10:51:03.106Z,78.48
2017-09-08T10:52:03.088Z,77.84
2017-09-08T10:53:03.122Z,76.4
2017-09-08T10:54:03.146Z,76.21
2017-09-08T10:55:03.166Z,75.82
2017-09-08T10:57:03.218Z,75.34
2017-09-08T10:58:03.239Z,76.01
2017-09-08T10:59:03.261Z,75.57
2017-09-08T11:01:03.321Z,75.38
2017-09-08T11:02:03.334Z,75.28
2017-09-08T11:03:03.518Z,75.28
2017-09-08T11:04:03.491Z,75.09
2017-09-08T11:06:18.056Z,73.88
2017-09-08T11:07:03.465Z,73.53
2017-09-08T11:08:03.484Z,73.14
2017-09-08T11:09:03.512Z,73.78
2017-09-08T11:10:03.634Z,73.49
2017-09-08T11:11:03.556Z,73.62
2017-09-08T11:12:03.592Z,73.43
2017-09-08T11:13:03.708Z,73.05
2017-09-08T11:14:03.738Z,73.24
2017-09-08T11:15:03.656Z,73.24
2017-09-08T11:16:03.686Z,72.47
2017-09-08T11:17:03.714Z,72.47
2017-09-08T11:18:03.844Z,72.27
2017-09-08T11:19:03.772Z,72.08
2017-09-08T11:20:03.798Z,72.43
2017-09-08T11:21:03.808Z,71.66
2017-09-08T11:22:18.456Z,72.33
2017-09-08T11:23:04.012Z,72.43
2017-09-08T11:24:03.885Z,72.33
2017-09-08T11:27:04.058Z,70.73
2017-09-08T11:28:03.997Z,70.83
2017-09-08T11:29:04.007Z,70.89
2017-09-08T11:30:04.043Z,70.98
2017-09-08T11:31:04.168Z,70.6
2017-09-08T11:32:03.975Z,70.44
2017-09-08T11:33:04.119Z,71.08
2017-09-08T11:34:04.139Z,70.7
2017-09-08T11:35:04.267Z,70.7
2017-09-08T11:36:04.189Z,71.95
2017-09-08T11:37:03.900Z,71.85
2017-09-08T11:38:18.855Z,71.7
2017-09-08T11:40:04.288Z,70.7
2017-09-08T11:41:04.312Z,70.7
2017-09-08T11:42:04.435Z,71.66
2017-09-08T11:43:04.376Z,72.63
2017-09-08T11:44:04.485Z,70.89
2017-09-08T11:45:04.408Z,70.6
2017-09-08T11:46:04.442Z,70.79
2017-09-08T11:47:04.571Z,71.08
2017-09-08T11:48:04.280Z,71.37
2017-09-08T11:49:04.621Z,70.6
2017-09-08T11:50:04.227Z,70.86
2017-09-08T11:51:04.563Z,70.86
2017-09-08T11:52:04.286Z,70.6
2017-09-08T11:53:19.232Z,69.73
2017-09-08T11:54:04.646Z,70.92
2017-09-08T11:55:04.869Z,70.64
2017-09-08T11:56:04.688Z,70.06
2017-09-08T11:57:04.724Z,69.57
2017-09-08T11:58:04.845Z,68.99
2017-09-08T11:59:05.026Z,69.48
2017-09-08T12:00:04.797Z,70.06
2017-09-08T12:01:04.710Z,69.93
2017-09-08T12:02:04.940Z,69.45
2017-09-08T12:03:04.862Z,69.64
2017-09-08T12:04:04.899Z,68.48
2017-09-08T12:05:04.968Z,69.35
2017-09-08T12:06:05.046Z,68.87
2017-09-08T12:07:04.972Z,69.15
2017-09-08T12:08:04.990Z,69.93
2017-09-08T12:09:05.121Z,69.64
2017-09-08T12:10:05.048Z,69.64
2017-09-08T12:11:05.161Z,69.25
2017-09-08T12:12:05.101Z,69.31
2017-09-08T12:13:05.215Z,70.02
2017-09-08T12:14:04.836Z,69.89
2017-09-08T12:15:05.367Z,69.89
2017-09-08T12:16:05.194Z,70.66
2017-09-08T12:17:05.213Z,69.99
2017-09-08T12:18:05.240Z,69.6
2017-09-08T12:19:05.271Z,69.73
2017-09-08T12:20:04.983Z,70.09
2017-09-08T12:21:05.317Z,70.09
2017-09-08T12:22:05.037Z,70.41
2017-09-08T12:23:05.060Z,70.02
2017-09-08T12:24:05.574Z,69.89
2017-09-08T12:25:20.037Z,69.15
2017-09-08T12:26:05.443Z,69.41
2017-09-08T12:27:05.475Z,69.99
2017-09-08T12:28:05.498Z,70.28
2017-09-08T12:29:05.459Z,70.28
2017-09-08T12:30:05.691Z,70.95
2017-09-08T12:31:05.571Z,71.43
2017-09-08T12:32:05.601Z,71.24
2017-09-08T12:33:05.620Z,70.66
2017-09-08T12:34:05.745Z,70.66
2017-09-08T12:35:05.559Z,71.62
2017-09-08T12:36:05.389Z,71.3
2017-09-08T12:37:05.414Z,71.14
2017-09-08T12:38:05.434Z,70.62
2017-09-08T12:39:05.608Z,70.53
2017-09-08T12:40:05.797Z,71.11
2017-09-08T12:41:20.439Z,71.59
2017-09-08T12:42:05.838Z,71.4
2017-09-08T12:43:05.964Z,72.36
2017-09-08T12:44:05.895Z,72.55
2017-09-08T12:45:05.912Z,71.59
2017-09-08T12:46:05.735Z,71.4
2017-09-08T12:47:06.010Z,72.17
2017-09-08T12:48:05.986Z,72.45
2017-09-08T12:49:06.010Z,72.94
2017-09-08T12:50:06.076Z,73.22
2017-09-08T12:51:06.071Z,73.13
2017-09-08T12:52:06.093Z,73.42
2017-09-08T12:53:06.113Z,73.99
2017-09-08T12:54:06.141Z,74.76
2017-09-08T12:55:06.162Z,74.67
2017-09-08T12:56:06.186Z,74.09
2017-09-08T12:57:20.830Z,75.05
2017-09-08T12:58:06.385Z,75.15
2017-09-08T12:59:06.266Z,75.73
2017-09-08T13:00:06.291Z,75.44
2017-09-08T13:01:06.315Z,75.63
2017-09-08T13:02:06.341Z,75.34
2017-09-08T13:03:06.361Z,75.44
2017-09-08T13:04:06.385Z,74.76
2017-09-08T13:05:06.404Z,75.73
2017-09-08T13:06:06.536Z,76.01
2017-09-08T13:07:06.663Z,76.31
2017-09-08T13:09:06.297Z,78.03
2017-09-08T13:10:06.536Z,77.36
2017-09-08T13:11:06.572Z,76.98
2017-09-08T13:12:06.583Z,77.17
2017-09-08T13:13:21.230Z,77.08
2017-09-08T13:14:06.795Z,77.13
2017-09-08T13:15:06.658Z,78.48
2017-09-08T13:16:06.692Z,78.67
2017-09-08T13:17:06.855Z,80.11
2017-09-08T13:19:06.752Z,80.69
2017-09-08T13:20:06.780Z,80.69
2017-09-08T13:21:06.960Z,82.04
2017-09-08T13:22:07.211Z,81.42
2017-09-08T13:23:06.962Z,81.61
2017-09-08T13:24:06.922Z,81.52
2017-09-08T13:25:07.051Z,80.07
2017-09-08T13:26:06.934Z,80.36
2017-09-08T13:27:06.960Z,81.52
2017-09-08T13:28:21.600Z,79.3
2017-09-08T13:29:07.006Z,79.79
2017-09-08T13:30:07.033Z,80.07
2017-09-08T13:31:07.051Z,80.55
2017-09-08T13:32:07.075Z,80.55
2017-09-08T13:33:07.210Z,81.61
2017-09-08T13:34:07.125Z,81.23
2017-09-08T13:35:07.148Z,81.52
2017-09-08T13:36:07.188Z,81.42
2017-09-08T13:37:06.894Z,81.76
2017-09-08T13:38:07.380Z,81.48
2017-09-08T13:39:07.251Z,81.48
2017-09-08T13:40:07.282Z,82.92
2017-09-08T13:41:07.597Z,83.4
2017-09-08T13:42:07.330Z,83.01
2017-09-08T13:43:07.349Z,82.92
2017-09-08T13:44:07.381Z,83.78
2017-09-08T13:45:07.493Z,84.26
2017-09-08T13:46:07.418Z,83.69